createdAt,value
2023-04-16T00:02:34.414Z,2.13
2023-04-16T00:05:37.327Z,1.60
2023-04-16T00:08:41.196Z,1.90
2023-04-16T00:11:43.860Z,1.47
2023-04-16T00:14:47.200Z,1.58
2023-04-16T00:17:50.101Z,1.25
2023-04-16T00:20:53.617Z,1.17
2023-04-16T00:23:56.411Z,1.75
2023-04-16T00:26:59.268Z,1.00
2023-04-16T00:30:03.720Z,0.98
2023-04-16T00:33:06.848Z,0.88
2023-04-16T00:36:10.380Z,0.90
2023-04-16T00:39:13.138Z,1.00
2023-04-16T00:42:16.230Z,0.80
2023-04-16T00:45:19.123Z,0.93
2023-04-16T00:48:22.288Z,1.20
2023-04-16T00:51:25.022Z,1.40
2023-04-16T00:54:28.378Z,1.10
2023-04-16T00:57:31.108Z,1.13
2023-04-16T01:00:34.324Z,0.85
2023-04-16T01:03:39.663Z,0.93
2023-04-16T01:06:42.511Z,0.98
2023-04-16T01:09:45.218Z,0.70
2023-04-16T01:12:48.074Z,0.90
2023-04-16T01:15:51.087Z,1.08
2023-04-16T01:18:53.816Z,0.90
2023-04-16T01:21:57.606Z,1.10
2023-04-16T01:25:01.026Z,1.40
2023-04-16T01:28:03.890Z,1.60
2023-04-16T01:31:06.826Z,2.20
2023-04-16T01:34:29.117Z,1.60
2023-04-16T01:37:32.100Z,1.70
2023-04-16T01:40:35.855Z,1.70
2023-04-16T01:43:40.287Z,1.03
2023-04-16T01:46:44.276Z,1.17
2023-04-16T01:49:48.393Z,0.90
2023-04-16T01:52:51.385Z,1.35
2023-04-16T01:55:54.064Z,1.20
2023-04-16T01:58:56.785Z,1.27
2023-04-16T02:02:16.421Z,1.30
2023-04-16T02:05:19.501Z,1.75
2023-04-16T02:08:23.510Z,1.50
2023-04-16T02:11:26.645Z,1.50
2023-04-16T02:14:31.050Z,2.00
2023-04-16T02:17:33.796Z,1.63
2023-04-16T02:20:48.170Z,1.92
2023-04-16T02:23:52.008Z,2.03
2023-04-16T02:27:00.398Z,1.90
2023-04-16T02:30:04.569Z,2.20
2023-04-16T02:33:11.561Z,2.10
2023-04-16T02:36:17.184Z,2.50
2023-04-16T02:39:20.207Z,2.20
2023-04-16T02:42:23.498Z,2.25
2023-04-16T02:45:26.271Z,2.27
2023-04-16T02:48:29.128Z,2.13
2023-04-16T02:51:33.418Z,2.60
2023-04-16T02:54:36.297Z,2.17
2023-04-16T02:57:39.133Z,2.10
2023-04-16T03:00:41.851Z,1.90
2023-04-16T03:03:44.710Z,1.95
2023-04-16T03:06:47.540Z,2.05
2023-04-16T03:09:50.429Z,1.85
2023-04-16T03:12:53.192Z,1.92
2023-04-16T03:15:55.944Z,2.53
2023-04-16T03:18:58.791Z,2.42
2023-04-16T03:22:01.667Z,2.47
2023-04-16T03:25:05.177Z,1.92
2023-04-16T03:28:07.875Z,2.00
2023-04-16T03:31:10.957Z,2.10
2023-04-16T03:34:14.164Z,1.60
2023-04-16T03:37:17.881Z,1.55
2023-04-16T03:40:20.731Z,1.70
2023-04-16T03:43:23.744Z,1.80
2023-04-16T03:46:26.982Z,1.43
2023-04-16T03:49:30.545Z,1.70
2023-04-16T03:52:34.426Z,1.33
2023-04-16T03:55:38.039Z,1.50
2023-04-16T03:58:40.894Z,1.42
2023-04-16T04:01:44.926Z,1.23
2023-04-16T04:04:48.165Z,1.40
2023-04-16T04:07:51.416Z,1.23
2023-04-16T04:10:54.697Z,1.15
2023-04-16T04:13:59.870Z,1.10
2023-04-16T04:17:02.606Z,1.20
2023-04-16T04:20:07.190Z,1.25
2023-04-16T04:23:10.081Z,1.20
2023-04-16T04:26:12.841Z,1.13
2023-04-16T04:29:16.615Z,1.50
2023-04-16T04:32:19.343Z,1.50
2023-04-16T04:35:25.025Z,1.30
2023-04-16T04:38:28.734Z,1.85
2023-04-16T04:41:31.729Z,1.83
2023-04-16T04:44:35.664Z,2.60
2023-04-16T04:47:38.449Z,2.60
2023-04-16T04:50:42.541Z,2.13
2023-04-16T04:53:45.302Z,2.97
2023-04-16T04:56:48.096Z,3.55
2023-04-16T04:59:51.004Z,2.70
2023-04-16T05:02:53.959Z,3.03
2023-04-16T05:05:56.789Z,2.60
2023-04-16T05:08:59.526Z,2.92
2023-04-16T05:12:02.845Z,2.95
2023-04-16T05:15:06.114Z,2.42
2023-04-16T05:18:08.905Z,2.80
2023-04-16T05:21:12.460Z,2.35
2023-04-16T05:24:15.252Z,2.88
2023-04-16T05:27:18.040Z,2.53
2023-04-16T05:30:20.816Z,2.45
2023-04-16T05:33:23.544Z,2.47
2023-04-16T05:36:26.273Z,2.83
2023-04-16T05:39:29.016Z,2.20
2023-04-16T05:42:32.312Z,2.20
2023-04-16T05:45:39.740Z,2.63
2023-04-16T05:48:42.950Z,2.30
2023-04-16T05:51:45.796Z,2.70
2023-04-16T05:54:48.456Z,2.45
2023-04-16T05:57:51.131Z,2.40
2023-04-16T06:00:53.879Z,2.47
2023-04-16T06:03:56.810Z,2.40
2023-04-16T06:06:59.661Z,2.25
2023-04-16T06:10:02.493Z,2.42
2023-04-16T06:13:05.236Z,2.63
2023-04-16T06:16:08.085Z,3.38
2023-04-16T06:19:11.146Z,3.97
2023-04-16T06:22:14.220Z,3.78
2023-04-16T06:25:18.206Z,4.20
2023-04-16T06:28:21.201Z,4.20
2023-04-16T06:31:24.879Z,3.95
2023-04-16T06:34:28.648Z,3.73
2023-04-16T06:37:31.478Z,4.05
2023-04-16T06:40:34.391Z,4.50
2023-04-16T06:43:37.247Z,3.80
2023-04-16T06:46:39.987Z,4.50
2023-04-16T06:49:42.810Z,3.80
2023-04-16T06:52:46.004Z,3.90
2023-04-16T06:55:48.690Z,4.18
2023-04-16T06:58:51.597Z,3.67
2023-04-16T07:01:55.919Z,4.25
2023-04-16T07:04:59.080Z,4.20
2023-04-16T07:08:01.978Z,4.88
2023-04-16T07:11:05.180Z,4.38
2023-04-16T07:14:08.394Z,4.95
2023-04-16T07:17:11.340Z,4.28
2023-04-16T07:20:14.244Z,4.30
2023-04-16T07:23:17.091Z,4.45
2023-04-16T07:26:19.843Z,3.65
2023-04-16T07:29:22.898Z,3.72
2023-04-16T07:32:26.375Z,4.05
2023-04-16T07:35:29.391Z,3.47
2023-04-16T07:38:32.594Z,3.25
2023-04-16T07:41:35.991Z,3.53
2023-04-16T07:44:39.643Z,3.58
2023-04-16T07:47:42.503Z,4.03
2023-04-16T07:50:45.405Z,3.90
2023-04-16T07:53:48.154Z,3.05
2023-04-16T07:56:50.920Z,3.90
2023-04-16T07:59:53.703Z,4.75
2023-04-16T08:02:56.798Z,4.20
2023-04-16T08:05:59.785Z,3.33
2023-04-16T08:09:03.076Z,4.20
2023-04-16T08:12:06.346Z,4.40
2023-04-16T08:15:09.524Z,4.60
2023-04-16T08:18:15.738Z,4.47
2023-04-16T08:21:18.652Z,5.10
2023-04-16T08:24:21.489Z,5.35
2023-04-16T08:27:24.183Z,4.85
2023-04-16T08:30:27.325Z,4.35
2023-04-16T08:33:30.746Z,5.40
2023-04-16T08:36:33.529Z,4.40
2023-04-16T08:39:36.363Z,5.40
2023-04-16T08:42:56.449Z,5.30
2023-04-16T08:45:59.546Z,5.43
2023-04-16T08:49:05.309Z,5.53
2023-04-16T08:52:14.658Z,5.10
2023-04-16T08:55:23.040Z,5.63
2023-04-16T08:58:29.748Z,6.70
2023-04-16T09:01:36.405Z,6.57
2023-04-16T09:04:40.285Z,7.20
2023-04-16T09:07:45.772Z,6.47
2023-04-16T09:10:49.186Z,6.30
2023-04-16T09:13:52.701Z,6.47
2023-04-16T09:16:56.275Z,7.28
2023-04-16T09:19:59.293Z,7.85
2023-04-16T09:23:02.087Z,9.33
2023-04-16T09:26:05.610Z,8.27
2023-04-16T09:29:09.967Z,7.57
2023-04-16T09:32:13.012Z,8.30
2023-04-16T09:35:16.770Z,8.63
2023-04-16T09:38:20.890Z,8.30
2023-04-16T09:41:28.637Z,8.77
2023-04-16T09:44:38.342Z,8.35
2023-04-16T09:47:43.226Z,7.68
2023-04-16T09:50:51.873Z,7.00
2023-04-16T09:53:57.256Z,6.80
2023-04-16T09:57:01.225Z,7.35
2023-04-16T10:00:06.749Z,7.60
2023-04-16T10:03:09.588Z,7.55
2023-04-16T10:06:20.875Z,7.78
2023-04-16T10:09:23.531Z,8.80
2023-04-16T10:12:27.388Z,8.27
2023-04-16T10:15:30.749Z,8.10
2023-04-16T10:18:38.962Z,7.93
2023-04-16T10:21:42.333Z,8.05
2023-04-16T10:24:47.218Z,7.30
2023-04-16T10:27:51.285Z,7.43
2023-04-16T10:30:57.054Z,7.32
2023-04-16T10:34:00.814Z,7.60
2023-04-16T10:37:03.497Z,6.97
2023-04-16T10:40:23.876Z,5.57
2023-04-16T10:43:27.144Z,6.72
2023-04-16T10:46:40.868Z,6.75
2023-04-16T10:49:44.121Z,7.68
2023-04-16T10:52:47.279Z,6.93
2023-04-16T10:56:05.719Z,6.20
2023-04-16T10:59:11.177Z,6.32
2023-04-16T11:02:16.609Z,6.30
2023-04-16T11:05:22.994Z,6.28
2023-04-16T11:08:26.377Z,7.35
2023-04-16T11:11:41.096Z,7.07
2023-04-16T11:14:48.427Z,8.02
2023-04-16T11:17:52.223Z,7.50
2023-04-16T11:20:55.223Z,7.10
2023-04-16T11:23:58.277Z,8.77
2023-04-16T11:27:01.808Z,7.63
2023-04-16T11:30:07.503Z,8.27
2023-04-16T11:33:11.760Z,7.90
2023-04-16T11:36:14.708Z,8.45
2023-04-16T11:39:17.965Z,7.00
2023-04-16T11:42:22.863Z,7.50
2023-04-16T11:45:26.018Z,7.20
2023-04-16T11:48:52.272Z,7.10
2023-04-16T11:51:55.614Z,6.38
2023-04-16T11:54:59.884Z,7.38
2023-04-16T11:58:13.251Z,6.80
2023-04-16T12:01:21.525Z,7.00
2023-04-16T12:04:26.363Z,7.80
2023-04-16T12:07:29.107Z,7.25
2023-04-16T12:10:35.454Z,8.60
2023-04-16T12:13:40.346Z,7.80
2023-04-16T12:16:43.213Z,7.45
2023-04-16T12:19:52.929Z,7.10
2023-04-16T12:22:58.344Z,8.50
2023-04-16T12:26:10.748Z,9.32
2023-04-16T12:29:19.000Z,8.30
2023-04-16T12:32:23.453Z,9.18
2023-04-16T12:35:31.457Z,8.05
2023-04-16T12:38:34.245Z,7.63
2023-04-16T12:41:38.985Z,8.10
2023-04-16T12:44:41.677Z,6.43
2023-04-16T12:47:44.597Z,7.57
2023-04-16T12:50:47.455Z,7.88
2023-04-16T12:53:50.457Z,7.00
2023-04-16T12:56:53.280Z,7.70
2023-04-16T12:59:57.490Z,7.00
2023-04-16T13:03:00.557Z,7.50
2023-04-16T13:06:04.524Z,6.30
2023-04-16T13:09:07.693Z,6.22
2023-04-16T13:12:10.838Z,6.22
2023-04-16T13:15:13.733Z,6.80
2023-04-16T13:18:16.759Z,6.00
2023-04-16T13:21:19.678Z,7.10
2023-04-16T13:24:23.737Z,5.57
2023-04-16T13:27:26.769Z,6.30
2023-04-16T13:30:29.658Z,6.40
2023-04-16T13:33:32.643Z,5.07
2023-04-16T13:36:36.462Z,5.28
2023-04-16T13:39:39.271Z,3.92
2023-04-16T13:42:42.471Z,3.97
2023-04-16T13:45:46.230Z,4.00
2023-04-16T13:48:49.291Z,3.30
2023-04-16T13:51:53.749Z,2.92
2023-04-16T13:54:59.648Z,3.28
2023-04-16T13:58:04.055Z,4.05
2023-04-16T14:01:07.391Z,4.07
2023-04-16T14:04:11.897Z,3.78
2023-04-16T14:07:15.653Z,3.80
2023-04-16T14:10:18.756Z,3.55
2023-04-16T14:13:21.877Z,3.50
2023-04-16T14:16:24.941Z,3.90
2023-04-16T14:19:27.804Z,3.55
2023-04-16T14:22:30.746Z,3.38
2023-04-16T14:25:34.266Z,3.28
2023-04-16T14:28:37.298Z,2.97
2023-04-16T14:31:40.326Z,3.67
2023-04-16T14:34:43.377Z,3.53
2023-04-16T14:37:46.945Z,3.00
2023-04-16T14:40:49.854Z,3.63
2023-04-16T14:43:53.120Z,3.40
2023-04-16T14:46:56.002Z,2.37
2023-04-16T14:49:58.832Z,2.70
2023-04-16T14:53:01.836Z,2.95
2023-04-16T14:56:06.007Z,2.85
2023-04-16T14:59:08.970Z,3.15
2023-04-16T15:02:12.219Z,3.50
2023-04-16T15:05:15.342Z,2.95
2023-04-16T15:08:18.212Z,2.70
2023-04-16T15:11:21.008Z,2.17
2023-04-16T15:14:24.107Z,1.90
2023-04-16T15:17:26.911Z,1.90
2023-04-16T15:20:29.731Z,2.30
2023-04-16T15:23:32.579Z,2.22
2023-04-16T15:26:35.876Z,2.20
2023-04-16T15:29:38.913Z,1.83
2023-04-16T15:32:43.519Z,1.70
2023-04-16T15:35:46.567Z,2.17
2023-04-16T15:38:49.443Z,2.25
2023-04-16T15:44:58.387Z,2.22
2023-04-16T15:48:01.289Z,2.03
2023-04-16T15:51:04.210Z,1.90
2023-04-16T15:54:08.578Z,2.20
2023-04-16T15:57:11.366Z,2.40
2023-04-16T16:00:17.174Z,2.70
2023-04-16T16:03:21.699Z,2.50
2023-04-16T16:06:24.917Z,2.20
2023-04-16T16:09:28.098Z,2.10
2023-04-16T16:12:31.452Z,2.30
2023-04-16T16:15:34.357Z,2.40
2023-04-16T16:18:37.440Z,2.50
2023-04-16T16:21:41.067Z,2.80
2023-04-16T16:24:44.237Z,2.55
2023-04-16T16:27:47.436Z,2.60
2023-04-16T16:30:51.435Z,2.47
2023-04-16T16:33:54.581Z,3.50
2023-04-16T16:36:57.610Z,3.42
2023-04-16T16:40:00.804Z,3.00
2023-04-16T16:43:04.455Z,2.63
2023-04-16T16:46:07.692Z,2.63
2023-04-16T16:49:11.238Z,2.83
2023-04-16T16:52:14.513Z,2.90
2023-04-16T16:55:18.809Z,3.47
2023-04-16T16:58:21.999Z,3.65
2023-04-16T17:01:28.450Z,3.85
2023-04-16T17:04:31.353Z,3.40
2023-04-16T17:07:34.498Z,4.97
2023-04-16T17:10:37.849Z,4.38
2023-04-16T17:13:41.095Z,3.08
2023-04-16T17:16:46.607Z,5.57
2023-04-16T17:19:49.674Z,3.60
2023-04-16T17:22:52.897Z,4.57
2023-04-16T17:25:55.692Z,4.53
2023-04-16T17:28:59.484Z,4.57
2023-04-16T17:32:02.778Z,4.25
2023-04-16T17:35:07.065Z,4.07
2023-04-16T17:38:10.675Z,3.60
2023-04-16T17:41:13.761Z,4.28
2023-04-16T17:44:17.121Z,4.13
2023-04-16T17:47:20.249Z,4.53
2023-04-16T17:50:23.485Z,3.90
2023-04-16T17:53:26.464Z,4.03
2023-04-16T17:56:29.508Z,4.10
2023-04-16T17:59:33.302Z,3.53
2023-04-16T18:02:36.557Z,4.50
2023-04-16T18:05:40.987Z,5.63
2023-04-16T18:08:44.033Z,6.53
2023-04-16T18:11:47.290Z,9.18
2023-04-16T18:14:50.483Z,7.38
2023-04-16T18:17:54.462Z,6.40
2023-04-16T18:20:57.707Z,5.40
2023-04-16T18:24:03.556Z,4.68
2023-04-16T18:27:07.296Z,4.45
2023-04-16T18:30:20.169Z,4.15
2023-04-16T18:33:52.288Z,4.03
2023-04-16T18:36:52.502Z,4.40
2023-04-16T18:39:57.927Z,3.28
2023-04-16T18:43:01.204Z,3.70
2023-04-16T18:46:04.234Z,4.13
2023-04-16T18:49:07.642Z,3.63
2023-04-16T18:52:10.963Z,2.97
2023-04-16T18:55:14.066Z,4.40
2023-04-16T18:58:17.254Z,3.58
2023-04-16T19:01:20.618Z,3.75
2023-04-16T19:04:23.801Z,3.95
2023-04-16T19:07:27.859Z,3.53
2023-04-16T19:10:31.090Z,3.05
2023-04-16T19:13:34.223Z,3.00
2023-04-16T19:16:39.204Z,3.35
2023-04-16T19:19:42.680Z,3.35
2023-04-16T19:22:46.088Z,4.00
2023-04-16T19:25:49.372Z,3.38
2023-04-16T19:28:52.577Z,3.33
2023-04-16T19:31:55.946Z,3.05
2023-04-16T19:34:59.051Z,3.85
2023-04-16T19:38:02.065Z,3.00
2023-04-16T19:41:04.862Z,3.08
2023-04-16T19:44:08.384Z,3.20
2023-04-16T19:47:11.959Z,3.30
2023-04-16T19:50:16.078Z,4.70
2023-04-16T19:53:18.821Z,5.20
2023-04-16T19:56:22.022Z,5.60
2023-04-16T19:59:28.252Z,6.45
2023-04-16T20:02:31.461Z,7.53
2023-04-16T20:05:34.989Z,9.20
2023-04-16T20:08:38.040Z,9.63
2023-04-16T20:11:41.364Z,9.32
2023-04-16T20:14:45.000Z,8.85
2023-04-16T20:17:47.819Z,8.93
2023-04-16T20:20:50.723Z,9.40
2023-04-16T20:23:53.827Z,8.80
2023-04-16T20:26:56.795Z,8.80
2023-04-16T20:30:00.484Z,9.45
2023-04-16T20:33:04.055Z,9.02
2023-04-16T20:36:07.367Z,9.60
2023-04-16T20:39:11.264Z,9.80
2023-04-16T20:42:14.210Z,9.70
2023-04-16T20:45:17.039Z,8.80
2023-04-16T20:48:19.896Z,8.20
2023-04-16T20:51:22.692Z,8.95
2023-04-16T20:54:25.736Z,7.77
2023-04-16T20:57:29.802Z,7.00
2023-04-16T21:00:32.764Z,7.38
2023-04-16T21:03:35.931Z,7.30
2023-04-16T21:06:43.135Z,8.25
2023-04-16T21:09:45.989Z,7.60
2023-04-16T21:12:48.828Z,7.28
2023-04-16T21:15:51.759Z,6.47
2023-04-16T21:18:55.770Z,6.10
2023-04-16T21:21:58.802Z,6.05
2023-04-16T21:25:02.725Z,5.57
2023-04-16T21:28:05.617Z,5.40
2023-04-16T21:31:08.527Z,5.03
2023-04-16T21:34:11.219Z,5.22
2023-04-16T21:37:14.044Z,6.22
2023-04-16T21:40:16.892Z,6.27
2023-04-16T21:43:20.294Z,5.70
2023-04-16T21:46:23.206Z,5.50
2023-04-16T21:49:26.032Z,5.13
2023-04-16T21:52:28.845Z,5.30
2023-04-16T21:55:31.553Z,3.97
2023-04-16T21:58:34.321Z,5.28
2023-04-16T22:01:37.075Z,4.18
2023-04-16T22:04:40.152Z,4.35
2023-04-16T22:07:42.909Z,5.50
2023-04-16T22:10:45.829Z,4.43
2023-04-16T22:13:49.601Z,5.25
2023-04-16T22:16:53.732Z,4.78
2023-04-16T22:20:00.575Z,4.32
2023-04-16T22:23:03.310Z,5.13
2023-04-16T22:26:06.348Z,5.37
2023-04-16T22:29:09.297Z,4.00
2023-04-16T22:32:12.248Z,4.47
2023-04-16T22:35:15.064Z,5.05
2023-04-16T22:38:17.966Z,3.40
2023-04-16T22:41:21.286Z,3.87
2023-04-16T22:44:24.090Z,3.92
2023-04-16T22:47:26.872Z,4.65
2023-04-16T22:50:31.557Z,3.55
2023-04-16T22:53:35.014Z,4.20
2023-04-16T22:56:39.068Z,3.60
2023-04-16T22:59:42.040Z,4.75
2023-04-16T23:02:45.365Z,4.70
2023-04-16T23:05:49.297Z,4.50
2023-04-16T23:08:52.308Z,4.57
2023-04-16T23:11:55.932Z,3.73
2023-04-16T23:15:00.817Z,4.88
2023-04-16T23:18:03.722Z,5.10
2023-04-16T23:21:06.520Z,4.15
2023-04-16T23:24:09.551Z,4.20
2023-04-16T23:27:12.322Z,3.83
2023-04-16T23:30:15.230Z,3.97
2023-04-16T23:33:18.004Z,3.78
2023-04-16T23:36:20.886Z,5.10
2023-04-16T23:39:24.166Z,4.30
2023-04-16T23:42:27.021Z,4.80
2023-04-16T23:45:29.764Z,4.72
2023-04-16T23:48:32.897Z,4.30
2023-04-16T23:51:35.719Z,4.07
2023-04-16T23:54:38.543Z,3.40
2023-04-16T23:57:41.225Z,4.43
